sensor_id;sensor_type;location;lat;lon;timestamp;temperature;humidity
12922;DHT22;6528;48.086;16.282;2023-10-13T00:00:34;22.10;1.00
12922;DHT22;6528;48.086;16.282;2023-10-13T00:03:08;22.10;1.00
12922;DHT22;6528;48.086;16.282;2023-10-13T00:05:43;22.10;1.00
12922;DHT22;6528;48.086;16.282;2023-10-13T00:08:12;22.10;1.00
12922;DHT22;6528;48.086;16.282;2023-10-13T00:10:41;22.10;1.00
12922;DHT22;6528;48.086;16.282;2023-10-13T00:13:09;22.10;1.00
12922;DHT22;6528;48.086;16.282;2023-10-13T00:15:44;22.10;1.00
12922;DHT22;6528;48.086;16.282;2023-10-13T00:18:32;22.20;1.00
12922;DHT22;6528;48.086;16.282;2023-10-13T00:21:09;22.10;1.00
12922;DHT22;6528;48.086;16.282;2023-10-13T00:23:41;22.20;1.00
12922;DHT22;6528;48.086;16.282;2023-10-13T00:26:21;22.20;1.00
12922;DHT22;6528;48.086;16.282;2023-10-13T00:28:56;22.10;1.00
12922;DHT22;6528;48.086;16.282;2023-10-13T00:31:43;22.10;1.00
12922;DHT22;6528;48.086;16.282;2023-10-13T00:34:12;22.10;1.00
12922;DHT22;6528;48.086;16.282;2023-10-13T00:36:47;22.20;1.00
12922;DHT22;6528;48.086;16.282;2023-10-13T00:39:33;22.10;1.00
12922;DHT22;6528;48.086;16.282;2023-10-13T00:42:03;22.10;1.00
12922;DHT22;6528;48.086;16.282;2023-10-13T00:44:35;22.10;1.00
12922;DHT22;6528;48.086;16.282;2023-10-13T00:47:09;22.10;1.00
12922;DHT22;6528;48.086;16.282;2023-10-13T00:49:40;22.10;1.00
12922;DHT22;6528;48.086;16.282;2023-10-13T00:52:07;22.10;1.00
12922;DHT22;6528;48.086;16.282;2023-10-13T00:54:38;22.10;1.00
12922;DHT22;6528;48.086;16.282;2023-10-13T00:57:06;22.10;1.00
12922;DHT22;6528;48.086;16.282;2023-10-13T00:59:55;22.10;1.00
12922;DHT22;6528;48.086;16.282;2023-10-13T01:02:22;22.10;1.00
12922;DHT22;6528;48.086;16.282;2023-10-13T01:05:06;22.10;1.00
12922;DHT22;6528;48.086;16.282;2023-10-13T01:07:47;22.10;1.00
12922;DHT22;6528;48.086;16.282;2023-10-13T01:10:22;22.10;1.00
12922;DHT22;6528;48.086;16.282;2023-10-13T01:12:59;22.10;1.00
12922;DHT22;6528;48.086;16.282;2023-10-13T01:15:29;22.10;1.00
12922;DHT22;6528;48.086;16.282;2023-10-13T01:18:10;22.10;1.00
12922;DHT22;6528;48.086;16.282;2023-10-13T01:20:41;22.10;1.00
12922;DHT22;6528;48.086;16.282;2023-10-13T01:23:13;22.10;1.00
12922;DHT22;6528;48.086;16.282;2023-10-13T01:25:46;22.10;1.00
12922;DHT22;6528;48.086;16.282;2023-10-13T01:28:15;22.10;1.00
12922;DHT22;6528;48.086;16.282;2023-10-13T01:30:43;22.10;1.00
12922;DHT22;6528;48.086;16.282;2023-10-13T01:33:18;22.10;1.00
12922;DHT22;6528;48.086;16.282;2023-10-13T01:35:55;22.10;1.00
12922;DHT22;6528;48.086;16.282;2023-10-13T01:38:26;22.10;1.00
12922;DHT22;6528;48.086;16.282;2023-10-13T01:40:54;22.10;1.00
12922;DHT22;6528;48.086;16.282;2023-10-13T01:43:24;22.10;1.00
12922;DHT22;6528;48.086;16.282;2023-10-13T01:45:51;22.10;1.00
12922;DHT22;6528;48.086;16.282;2023-10-13T01:48:20;22.10;1.00
12922;DHT22;6528;48.086;16.282;2023-10-13T01:50:49;22.10;1.00
12922;DHT22;6528;48.086;16.282;2023-10-13T01:53:23;22.10;1.00
12922;DHT22;6528;48.086;16.282;2023-10-13T01:55:50;22.10;1.00
12922;DHT22;6528;48.086;16.282;2023-10-13T01:58:18;22.10;1.00
12922;DHT22;6528;48.086;16.282;2023-10-13T02:00:50;22.10;1.00
12922;DHT22;6528;48.086;16.282;2023-10-13T02:03:18;22.10;1.00
12922;DHT22;6528;48.086;16.282;2023-10-13T02:05:48;22.10;1.00
12922;DHT22;6528;48.086;16.282;2023-10-13T02:08:20;22.10;1.00
12922;DHT22;6528;48.086;16.282;2023-10-13T02:10:53;22.10;1.00
12922;DHT22;6528;48.086;16.282;2023-10-13T02:13:22;22.10;1.00
12922;DHT22;6528;48.086;16.282;2023-10-13T02:15:54;22.10;1.00
12922;DHT22;6528;48.086;16.282;2023-10-13T02:18:24;22.10;1.00
12922;DHT22;6528;48.086;16.282;2023-10-13T02:20:55;22.10;1.00
12922;DHT22;6528;48.086;16.282;2023-10-13T02:23:24;22.00;1.00
12922;DHT22;6528;48.086;16.282;2023-10-13T02:26:00;22.10;1.00
12922;DHT22;6528;48.086;16.282;2023-10-13T02:28:28;22.00;1.00
12922;DHT22;6528;48.086;16.282;2023-10-13T02:31:04;22.10;1.00
12922;DHT22;6528;48.086;16.282;2023-10-13T02:33:31;22.10;1.00
12922;DHT22;6528;48.086;16.282;2023-10-13T02:36:04;22.10;1.00
12922;DHT22;6528;48.086;16.282;2023-10-13T02:38:32;22.10;1.00
12922;DHT22;6528;48.086;16.282;2023-10-13T02:41:17;22.00;1.00
12922;DHT22;6528;48.086;16.282;2023-10-13T02:43:56;22.10;1.00
12922;DHT22;6528;48.086;16.282;2023-10-13T02:46:23;22.00;1.00
12922;DHT22;6528;48.086;16.282;2023-10-13T02:48:56;22.00;1.00
12922;DHT22;6528;48.086;16.282;2023-10-13T02:51:29;22.00;1.00
12922;DHT22;6528;48.086;16.282;2023-10-13T02:54:05;22.10;1.00
12922;DHT22;6528;48.086;16.282;2023-10-13T02:56:45;22.10;1.00
12922;DHT22;6528;48.086;16.282;2023-10-13T02:59:25;22.10;1.00
12922;DHT22;6528;48.086;16.282;2023-10-13T03:02:02;22.00;1.00
12922;DHT22;6528;48.086;16.282;2023-10-13T03:04:55;22.00;1.00
12922;DHT22;6528;48.086;16.282;2023-10-13T03:07:36;22.10;1.00
12922;DHT22;6528;48.086;16.282;2023-10-13T03:10:05;22.10;1.00
12922;DHT22;6528;48.086;16.282;2023-10-13T03:12:39;22.00;1.00
12922;DHT22;6528;48.086;16.282;2023-10-13T03:15:07;22.00;1.00
12922;DHT22;6528;48.086;16.282;2023-10-13T03:17:46;22.00;1.00
12922;DHT22;6528;48.086;16.282;2023-10-13T03:20:16;22.00;1.00
12922;DHT22;6528;48.086;16.282;2023-10-13T03:22:52;22.10;1.00
12922;DHT22;6528;48.086;16.282;2023-10-13T03:25:20;22.00;1.00
12922;DHT22;6528;48.086;16.282;2023-10-13T03:27:57;22.00;1.00
12922;DHT22;6528;48.086;16.282;2023-10-13T03:30:28;22.00;1.00
12922;DHT22;6528;48.086;16.282;2023-10-13T03:33:11;22.00;1.00
12922;DHT22;6528;48.086;16.282;2023-10-13T03:35:52;22.00;1.00
12922;DHT22;6528;48.086;16.282;2023-10-13T03:38:21;22.00;1.00
12922;DHT22;6528;48.086;16.282;2023-10-13T03:40:54;22.00;1.00
12922;DHT22;6528;48.086;16.282;2023-10-13T03:43:35;22.00;1.00
12922;DHT22;6528;48.086;16.282;2023-10-13T03:46:19;22.00;1.00
12922;DHT22;6528;48.086;16.282;2023-10-13T03:48:49;22.00;1.00
12922;DHT22;6528;48.086;16.282;2023-10-13T03:51:21;22.00;1.00
12922;DHT22;6528;48.086;16.282;2023-10-13T03:53:56;22.00;1.00
12922;DHT22;6528;48.086;16.282;2023-10-13T03:56:29;22.00;1.00
12922;DHT22;6528;48.086;16.282;2023-10-13T03:59:09;22.00;1.00
12922;DHT22;6528;48.086;16.282;2023-10-13T04:01:37;22.00;1.00
12922;DHT22;6528;48.086;16.282;2023-10-13T04:04:11;22.00;1.00
12922;DHT22;6528;48.086;16.282;2023-10-13T04:06:39;22.00;1.00
12922;DHT22;6528;48.086;16.282;2023-10-13T04:09:29;22.00;1.00
12922;DHT22;6528;48.086;16.282;2023-10-13T04:12:03;22.00;1.00
12922;DHT22;6528;48.086;16.282;2023-10-13T04:14:33;21.90;1.00
12922;DHT22;6528;48.086;16.282;2023-10-13T04:17:16;21.90;1.00
12922;DHT22;6528;48.086;16.282;2023-10-13T04:19:51;21.90;1.00
12922;DHT22;6528;48.086;16.282;2023-10-13T04:22:41;21.90;1.00
12922;DHT22;6528;48.086;16.282;2023-10-13T04:25:25;21.90;1.00
12922;DHT22;6528;48.086;16.282;2023-10-13T04:28:15;21.90;1.00
12922;DHT22;6528;48.086;16.282;2023-10-13T04:30:53;21.80;1.00
12922;DHT22;6528;48.086;16.282;2023-10-13T04:39:02;21.80;1.00
12922;DHT22;6528;48.086;16.282;2023-10-13T04:41:40;21.80;1.00
12922;DHT22;6528;48.086;16.282;2023-10-13T04:44:25;21.80;1.00
12922;DHT22;6528;48.086;16.282;2023-10-13T04:47:07;21.80;1.00
12922;DHT22;6528;48.086;16.282;2023-10-13T04:49:39;21.80;1.00
12922;DHT22;6528;48.086;16.282;2023-10-13T04:52:10;21.80;1.00
12922;DHT22;6528;48.086;16.282;2023-10-13T04:54:45;21.70;1.00
12922;DHT22;6528;48.086;16.282;2023-10-13T04:57:23;21.60;1.00
12922;DHT22;6528;48.086;16.282;2023-10-13T05:00:14;21.50;1.00
12922;DHT22;6528;48.086;16.282;2023-10-13T05:02:46;21.40;1.00
12922;DHT22;6528;48.086;16.282;2023-10-13T05:05:29;21.30;1.00
12922;DHT22;6528;48.086;16.282;2023-10-13T05:08:34;21.10;1.00
12922;DHT22;6528;48.086;16.282;2023-10-13T05:11:40;21.10;1.00
12922;DHT22;6528;48.086;16.282;2023-10-13T05:14:26;21.10;1.00
12922;DHT22;6528;48.086;16.282;2023-10-13T05:17:11;21.00;1.00
12922;DHT22;6528;48.086;16.282;2023-10-13T05:19:58;21.00;1.00
12922;DHT22;6528;48.086;16.282;2023-10-13T05:22:44;21.00;1.00
12922;DHT22;6528;48.086;16.282;2023-10-13T05:25:30;21.00;1.00
12922;DHT22;6528;48.086;16.282;2023-10-13T05:28:16;21.10;1.00
12922;DHT22;6528;48.086;16.282;2023-10-13T05:31:02;21.00;1.00
12922;DHT22;6528;48.086;16.282;2023-10-13T05:33:48;21.00;1.00
12922;DHT22;6528;48.086;16.282;2023-10-13T05:36:34;21.00;1.00
12922;DHT22;6528;48.086;16.282;2023-10-13T05:39:20;21.00;1.00
12922;DHT22;6528;48.086;16.282;2023-10-13T05:42:07;20.90;1.00
12922;DHT22;6528;48.086;16.282;2023-10-13T05:44:52;20.90;1.00
12922;DHT22;6528;48.086;16.282;2023-10-13T05:47:38;20.80;1.00
12922;DHT22;6528;48.086;16.282;2023-10-13T05:50:18;20.80;1.00
12922;DHT22;6528;48.086;16.282;2023-10-13T05:52:49;20.80;1.00
12922;DHT22;6528;48.086;16.282;2023-10-13T05:55:30;20.70;1.00
12922;DHT22;6528;48.086;16.282;2023-10-13T05:58:16;20.70;1.00
12922;DHT22;6528;48.086;16.282;2023-10-13T06:01:02;20.70;1.00
12922;DHT22;6528;48.086;16.282;2023-10-13T06:03:48;20.70;1.00
12922;DHT22;6528;48.086;16.282;2023-10-13T06:06:34;20.70;1.00
12922;DHT22;6528;48.086;16.282;2023-10-13T06:09:23;20.60;1.00
12922;DHT22;6528;48.086;16.282;2023-10-13T06:12:09;20.60;1.00
12922;DHT22;6528;48.086;16.282;2023-10-13T06:14:55;20.50;1.00
12922;DHT22;6528;48.086;16.282;2023-10-13T06:17:41;20.40;1.00
12922;DHT22;6528;48.086;16.282;2023-10-13T06:20:26;20.40;1.00
12922;DHT22;6528;48.086;16.282;2023-10-13T06:23:12;20.40;1.00
12922;DHT22;6528;48.086;16.282;2023-10-13T06:25:58;20.40;1.00
12922;DHT22;6528;48.086;16.282;2023-10-13T06:28:44;20.40;1.00
12922;DHT22;6528;48.086;16.282;2023-10-13T06:31:13;20.40;1.00
12922;DHT22;6528;48.086;16.282;2023-10-13T06:33:50;20.50;1.00
12922;DHT22;6528;48.086;16.282;2023-10-13T06:36:17;20.60;1.00
12922;DHT22;6528;48.086;16.282;2023-10-13T06:38:45;20.60;1.00
12922;DHT22;6528;48.086;16.282;2023-10-13T06:41:19;20.70;1.00
12922;DHT22;6528;48.086;16.282;2023-10-13T06:43:58;20.80;1.00
12922;DHT22;6528;48.086;16.282;2023-10-13T06:46:28;20.90;1.00
12922;DHT22;6528;48.086;16.282;2023-10-13T06:48:56;21.00;1.00
12922;DHT22;6528;48.086;16.282;2023-10-13T06:51:27;21.10;1.00
12922;DHT22;6528;48.086;16.282;2023-10-13T06:53:58;21.20;1.00
12922;DHT22;6528;48.086;16.282;2023-10-13T06:56:27;21.20;1.00
12922;DHT22;6528;48.086;16.282;2023-10-13T06:58:55;21.30;1.00
12922;DHT22;6528;48.086;16.282;2023-10-13T07:01:27;21.30;1.00
12922;DHT22;6528;48.086;16.282;2023-10-13T07:03:55;21.40;1.00
12922;DHT22;6528;48.086;16.282;2023-10-13T07:06:28;21.40;1.00
12922;DHT22;6528;48.086;16.282;2023-10-13T07:08:58;21.40;1.00
12922;DHT22;6528;48.086;16.282;2023-10-13T07:11:31;21.40;1.00
12922;DHT22;6528;48.086;16.282;2023-10-13T07:14:05;21.50;1.00
12922;DHT22;6528;48.086;16.282;2023-10-13T07:16:43;21.50;1.00
12922;DHT22;6528;48.086;16.282;2023-10-13T07:19:14;21.50;1.00
12922;DHT22;6528;48.086;16.282;2023-10-13T07:21:48;21.50;1.00
12922;DHT22;6528;48.086;16.282;2023-10-13T07:24:16;21.50;1.00
12922;DHT22;6528;48.086;16.282;2023-10-13T07:26:44;21.60;1.00
12922;DHT22;6528;48.086;16.282;2023-10-13T07:29:14;21.60;1.00
12922;DHT22;6528;48.086;16.282;2023-10-13T07:31:42;21.60;1.00
12922;DHT22;6528;48.086;16.282;2023-10-13T07:34:13;21.60;1.00
12922;DHT22;6528;48.086;16.282;2023-10-13T07:36:54;21.70;1.00
12922;DHT22;6528;48.086;16.282;2023-10-13T07:39:31;21.70;1.00
12922;DHT22;6528;48.086;16.282;2023-10-13T07:42:02;21.80;1.00
12922;DHT22;6528;48.086;16.282;2023-10-13T07:44:34;21.80;1.00
12922;DHT22;6528;48.086;16.282;2023-10-13T07:47:07;21.90;1.00
12922;DHT22;6528;48.086;16.282;2023-10-13T07:49:38;21.90;1.00
12922;DHT22;6528;48.086;16.282;2023-10-13T07:52:09;22.10;1.00
12922;DHT22;6528;48.086;16.282;2023-10-13T07:54:53;22.20;1.00
12922;DHT22;6528;48.086;16.282;2023-10-13T07:57:39;22.30;1.00
12922;DHT22;6528;48.086;16.282;2023-10-13T08:00:26;22.40;1.00
12922;DHT22;6528;48.086;16.282;2023-10-13T08:03:14;22.50;1.00
12922;DHT22;6528;48.086;16.282;2023-10-13T08:05:59;22.70;1.00
12922;DHT22;6528;48.086;16.282;2023-10-13T08:08:34;22.80;1.00
12922;DHT22;6528;48.086;16.282;2023-10-13T08:11:09;22.90;1.00
12922;DHT22;6528;48.086;16.282;2023-10-13T08:13:56;23.00;1.00
12922;DHT22;6528;48.086;16.282;2023-10-13T08:16:39;23.00;1.00
12922;DHT22;6528;48.086;16.282;2023-10-13T08:19:18;23.10;1.00
12922;DHT22;6528;48.086;16.282;2023-10-13T08:21:47;23.20;1.00
12922;DHT22;6528;48.086;16.282;2023-10-13T08:24:26;23.20;1.00
12922;DHT22;6528;48.086;16.282;2023-10-13T08:27:07;23.30;1.00
12922;DHT22;6528;48.086;16.282;2023-10-13T08:29:53;23.30;1.00
12922;DHT22;6528;48.086;16.282;2023-10-13T08:32:25;23.40;1.00
12922;DHT22;6528;48.086;16.282;2023-10-13T08:34:57;23.40;1.00
12922;DHT22;6528;48.086;16.282;2023-10-13T08:37:26;23.50;1.00
12922;DHT22;6528;48.086;16.282;2023-10-13T08:39:58;23.50;1.00
12922;DHT22;6528;48.086;16.282;2023-10-13T08:42:56;23.50;1.00
12922;DHT22;6528;48.086;16.282;2023-10-13T08:45:36;23.50;1.00
12922;DHT22;6528;48.086;16.282;2023-10-13T08:48:06;23.50;1.00
12922;DHT22;6528;48.086;16.282;2023-10-13T08:50:42;23.50;1.00
12922;DHT22;6528;48.086;16.282;2023-10-13T08:53:23;23.50;1.00
12922;DHT22;6528;48.086;16.282;2023-10-13T08:56:03;23.50;1.00
12922;DHT22;6528;48.086;16.282;2023-10-13T09:01:36;23.60;1.00
12922;DHT22;6528;48.086;16.282;2023-10-13T09:04:19;23.50;1.00
12922;DHT22;6528;48.086;16.282;2023-10-13T09:07:03;23.50;1.00
12922;DHT22;6528;48.086;16.282;2023-10-13T09:12:25;23.50;1.00
12922;DHT22;6528;48.086;16.282;2023-10-13T09:14:59;23.50;1.00
12922;DHT22;6528;48.086;16.282;2023-10-13T09:17:49;23.50;1.00
12922;DHT22;6528;48.086;16.282;2023-10-13T09:20:17;23.50;1.00
12922;DHT22;6528;48.086;16.282;2023-10-13T09:22:59;23.50;1.00
12922;DHT22;6528;48.086;16.282;2023-10-13T09:25:36;23.50;1.00
12922;DHT22;6528;48.086;16.282;2023-10-13T09:28:11;23.50;1.00
12922;DHT22;6528;48.086;16.282;2023-10-13T09:30:49;23.50;1.00
12922;DHT22;6528;48.086;16.282;2023-10-13T09:33:26;23.40;1.00
12922;DHT22;6528;48.086;16.282;2023-10-13T09:36:29;23.40;1.00
12922;DHT22;6528;48.086;16.282;2023-10-13T09:38:58;23.40;1.00
12922;DHT22;6528;48.086;16.282;2023-10-13T09:41:57;23.40;1.00
12922;DHT22;6528;48.086;16.282;2023-10-13T09:44:25;23.30;1.00
12922;DHT22;6528;48.086;16.282;2023-10-13T09:47:01;23.30;1.00
12922;DHT22;6528;48.086;16.282;2023-10-13T09:49:45;23.30;1.00
12922;DHT22;6528;48.086;16.282;2023-10-13T09:52:18;23.30;1.00
12922;DHT22;6528;48.086;16.282;2023-10-13T09:57:43;23.30;1.00
12922;DHT22;6528;48.086;16.282;2023-10-13T10:00:17;23.30;1.00
12922;DHT22;6528;48.086;16.282;2023-10-13T10:03:06;23.30;1.00
12922;DHT22;6528;48.086;16.282;2023-10-13T10:05:58;23.30;1.00
12922;DHT22;6528;48.086;16.282;2023-10-13T10:08:34;23.30;1.00
12922;DHT22;6528;48.086;16.282;2023-10-13T10:11:19;23.40;1.00
12922;DHT22;6528;48.086;16.282;2023-10-13T10:14:10;23.40;1.00
12922;DHT22;6528;48.086;16.282;2023-10-13T10:19:18;23.40;1.00
12922;DHT22;6528;48.086;16.282;2023-10-13T10:21:46;23.40;1.00
12922;DHT22;6528;48.086;16.282;2023-10-13T10:24:16;23.50;1.00
12922;DHT22;6528;48.086;16.282;2023-10-13T10:26:57;23.50;1.00
12922;DHT22;6528;48.086;16.282;2023-10-13T10:29:24;23.50;1.00
12922;DHT22;6528;48.086;16.282;2023-10-13T10:31:52;23.40;1.00
12922;DHT22;6528;48.086;16.282;2023-10-13T10:34:20;23.40;1.00
12922;DHT22;6528;48.086;16.282;2023-10-13T10:36:54;23.50;1.00
12922;DHT22;6528;48.086;16.282;2023-10-13T10:39:35;23.50;1.00
12922;DHT22;6528;48.086;16.282;2023-10-13T10:42:13;23.50;1.00
12922;DHT22;6528;48.086;16.282;2023-10-13T10:44:51;23.40;1.00
12922;DHT22;6528;48.086;16.282;2023-10-13T10:47:22;23.40;1.00
12922;DHT22;6528;48.086;16.282;2023-10-13T10:50:00;23.40;1.00
12922;DHT22;6528;48.086;16.282;2023-10-13T10:52:35;23.40;1.00
12922;DHT22;6528;48.086;16.282;2023-10-13T10:55:07;23.40;1.00
12922;DHT22;6528;48.086;16.282;2023-10-13T10:57:41;23.40;1.00
12922;DHT22;6528;48.086;16.282;2023-10-13T11:00:20;23.30;1.00
12922;DHT22;6528;48.086;16.282;2023-10-13T11:02:56;23.30;1.00
12922;DHT22;6528;48.086;16.282;2023-10-13T11:05:24;23.30;1.00
12922;DHT22;6528;48.086;16.282;2023-10-13T11:08:00;23.30;1.00
12922;DHT22;6528;48.086;16.282;2023-10-13T11:10:30;23.30;1.00
12922;DHT22;6528;48.086;16.282;2023-10-13T11:13:00;23.30;1.00
12922;DHT22;6528;48.086;16.282;2023-10-13T11:15:44;23.30;1.00
12922;DHT22;6528;48.086;16.282;2023-10-13T11:18:12;23.30;1.00
12922;DHT22;6528;48.086;16.282;2023-10-13T11:20:49;23.30;1.00
12922;DHT22;6528;48.086;16.282;2023-10-13T11:23:22;23.20;1.00
12922;DHT22;6528;48.086;16.282;2023-10-13T11:25:59;23.20;1.00
12922;DHT22;6528;48.086;16.282;2023-10-13T11:28:27;23.30;1.00
12922;DHT22;6528;48.086;16.282;2023-10-13T11:30:56;23.20;1.00
12922;DHT22;6528;48.086;16.282;2023-10-13T11:33:27;23.20;1.00
12922;DHT22;6528;48.086;16.282;2023-10-13T11:35:58;23.20;1.00
12922;DHT22;6528;48.086;16.282;2023-10-13T11:38:32;23.20;1.00
12922;DHT22;6528;48.086;16.282;2023-10-13T11:41:04;23.20;1.00
12922;DHT22;6528;48.086;16.282;2023-10-13T11:46:22;23.20;1.00
12922;DHT22;6528;48.086;16.282;2023-10-13T11:49:07;23.20;1.00
12922;DHT22;6528;48.086;16.282;2023-10-13T11:51:45;23.10;1.00
12922;DHT22;6528;48.086;16.282;2023-10-13T11:54:19;23.10;1.00
12922;DHT22;6528;48.086;16.282;2023-10-13T11:56:48;23.10;1.00
12922;DHT22;6528;48.086;16.282;2023-10-13T11:59:16;23.10;1.00
12922;DHT22;6528;48.086;16.282;2023-10-13T12:01:49;23.10;1.00
12922;DHT22;6528;48.086;16.282;2023-10-13T12:04:36;23.10;1.00
12922;DHT22;6528;48.086;16.282;2023-10-13T12:07:19;23.10;1.00
12922;DHT22;6528;48.086;16.282;2023-10-13T12:10:05;23.10;1.00
12922;DHT22;6528;48.086;16.282;2023-10-13T12:12:42;23.10;1.00
12922;DHT22;6528;48.086;16.282;2023-10-13T12:15:13;23.10;1.00
12922;DHT22;6528;48.086;16.282;2023-10-13T12:17:53;23.10;1.00
12922;DHT22;6528;48.086;16.282;2023-10-13T12:20:26;23.00;1.00
12922;DHT22;6528;48.086;16.282;2023-10-13T12:23:00;23.10;1.00
12922;DHT22;6528;48.086;16.282;2023-10-13T12:25:43;23.00;1.00
12922;DHT22;6528;48.086;16.282;2023-10-13T12:28:25;23.10;1.00
12922;DHT22;6528;48.086;16.282;2023-10-13T12:30:56;23.00;1.00
12922;DHT22;6528;48.086;16.282;2023-10-13T12:33:31;23.10;1.00
12922;DHT22;6528;48.086;16.282;2023-10-13T12:36:04;23.00;1.00
12922;DHT22;6528;48.086;16.282;2023-10-13T12:38:36;23.10;1.00
12922;DHT22;6528;48.086;16.282;2023-10-13T12:41:19;23.00;1.00
12922;DHT22;6528;48.086;16.282;2023-10-13T12:44:06;23.00;1.00
12922;DHT22;6528;48.086;16.282;2023-10-13T12:46:52;23.00;1.00
12922;DHT22;6528;48.086;16.282;2023-10-13T12:49:39;23.00;1.00
12922;DHT22;6528;48.086;16.282;2023-10-13T12:52:11;23.00;1.00
12922;DHT22;6528;48.086;16.282;2023-10-13T12:54:53;23.00;1.00
12922;DHT22;6528;48.086;16.282;2023-10-13T12:57:27;23.00;1.00
12922;DHT22;6528;48.086;16.282;2023-10-13T12:59:55;23.10;1.00
12922;DHT22;6528;48.086;16.282;2023-10-13T13:02:23;23.00;1.00
12922;DHT22;6528;48.086;16.282;2023-10-13T13:04:56;23.00;1.00
12922;DHT22;6528;48.086;16.282;2023-10-13T13:07:33;23.00;1.00
12922;DHT22;6528;48.086;16.282;2023-10-13T13:10:11;23.00;1.00
12922;DHT22;6528;48.086;16.282;2023-10-13T13:12:41;23.00;1.00
12922;DHT22;6528;48.086;16.282;2023-10-13T13:15:09;23.00;1.00
12922;DHT22;6528;48.086;16.282;2023-10-13T13:17:39;23.00;1.00
12922;DHT22;6528;48.086;16.282;2023-10-13T13:20:08;23.00;1.00
12922;DHT22;6528;48.086;16.282;2023-10-13T13:22:39;23.00;1.00
12922;DHT22;6528;48.086;16.282;2023-10-13T13:25:07;23.00;1.00
12922;DHT22;6528;48.086;16.282;2023-10-13T13:27:36;23.00;1.00
12922;DHT22;6528;48.086;16.282;2023-10-13T13:30:04;23.00;1.00
12922;DHT22;6528;48.086;16.282;2023-10-13T13:32:40;23.00;1.00
12922;DHT22;6528;48.086;16.282;2023-10-13T13:35:13;22.90;1.00
12922;DHT22;6528;48.086;16.282;2023-10-13T13:37:45;22.90;1.00
12922;DHT22;6528;48.086;16.282;2023-10-13T13:40:13;22.90;1.00
12922;DHT22;6528;48.086;16.282;2023-10-13T13:42:49;22.90;1.00
12922;DHT22;6528;48.086;16.282;2023-10-13T13:45:17;23.00;1.00
12922;DHT22;6528;48.086;16.282;2023-10-13T13:48:11;22.90;1.00
12922;DHT22;6528;48.086;16.282;2023-10-13T13:50:43;22.90;1.00
12922;DHT22;6528;48.086;16.282;2023-10-13T13:53:11;22.90;1.00
12922;DHT22;6528;48.086;16.282;2023-10-13T13:55:41;22.90;1.00
12922;DHT22;6528;48.086;16.282;2023-10-13T13:58:08;22.90;1.00
12922;DHT22;6528;48.086;16.282;2023-10-13T14:00:37;22.90;1.00
12922;DHT22;6528;48.086;16.282;2023-10-13T14:03:06;22.90;1.00
12922;DHT22;6528;48.086;16.282;2023-10-13T14:05:43;22.90;1.00
12922;DHT22;6528;48.086;16.282;2023-10-13T14:08:11;22.90;1.00
12922;DHT22;6528;48.086;16.282;2023-10-13T14:10:42;22.90;1.00
12922;DHT22;6528;48.086;16.282;2023-10-13T14:13:40;22.90;1.00
12922;DHT22;6528;48.086;16.282;2023-10-13T14:16:18;22.90;1.00
12922;DHT22;6528;48.086;16.282;2023-10-13T14:18:50;22.90;1.00
12922;DHT22;6528;48.086;16.282;2023-10-13T14:21:18;22.90;1.00
12922;DHT22;6528;48.086;16.282;2023-10-13T14:23:47;22.80;1.00
12922;DHT22;6528;48.086;16.282;2023-10-13T14:26:18;22.90;1.00
12922;DHT22;6528;48.086;16.282;2023-10-13T14:28:48;22.80;1.00
12922;DHT22;6528;48.086;16.282;2023-10-13T14:31:28;22.80;1.00
12922;DHT22;6528;48.086;16.282;2023-10-13T14:33:55;22.80;1.00
12922;DHT22;6528;48.086;16.282;2023-10-13T14:36:26;22.80;1.00
12922;DHT22;6528;48.086;16.282;2023-10-13T14:38:56;22.80;1.00
12922;DHT22;6528;48.086;16.282;2023-10-13T14:41:24;22.80;1.00
12922;DHT22;6528;48.086;16.282;2023-10-13T14:43:51;22.80;1.00
12922;DHT22;6528;48.086;16.282;2023-10-13T14:46:20;22.80;1.00
12922;DHT22;6528;48.086;16.282;2023-10-13T14:48:54;22.80;1.00
12922;DHT22;6528;48.086;16.282;2023-10-13T14:51:21;22.80;1.00
12922;DHT22;6528;48.086;16.282;2023-10-13T14:53:49;22.80;1.00
12922;DHT22;6528;48.086;16.282;2023-10-13T14:56:20;22.80;1.00
12922;DHT22;6528;48.086;16.282;2023-10-13T14:58:52;22.80;1.00
12922;DHT22;6528;48.086;16.282;2023-10-13T15:01:21;22.80;1.00
12922;DHT22;6528;48.086;16.282;2023-10-13T15:03:51;22.80;1.00
12922;DHT22;6528;48.086;16.282;2023-10-13T15:06:27;22.80;1.00
12922;DHT22;6528;48.086;16.282;2023-10-13T15:08:59;22.80;1.00
12922;DHT22;6528;48.086;16.282;2023-10-13T15:11:27;22.80;1.00
12922;DHT22;6528;48.086;16.282;2023-10-13T15:14:14;22.80;1.00
12922;DHT22;6528;48.086;16.282;2023-10-13T15:16:42;22.70;1.00
12922;DHT22;6528;48.086;16.282;2023-10-13T15:19:11;22.80;1.00
12922;DHT22;6528;48.086;16.282;2023-10-13T15:21:39;22.70;1.00
12922;DHT22;6528;48.086;16.282;2023-10-13T15:24:14;22.70;1.00
12922;DHT22;6528;48.086;16.282;2023-10-13T15:26:53;22.80;1.00
12922;DHT22;6528;48.086;16.282;2023-10-13T15:29:30;22.70;1.00
12922;DHT22;6528;48.086;16.282;2023-10-13T15:32:04;22.70;1.00
12922;DHT22;6528;48.086;16.282;2023-10-13T15:34:52;22.70;1.00
12922;DHT22;6528;48.086;16.282;2023-10-13T15:37:20;22.70;1.00
12922;DHT22;6528;48.086;16.282;2023-10-13T15:39:47;22.70;1.00
12922;DHT22;6528;48.086;16.282;2023-10-13T15:42:15;22.70;1.00
12922;DHT22;6528;48.086;16.282;2023-10-13T15:44:42;22.70;1.00
12922;DHT22;6528;48.086;16.282;2023-10-13T15:47:10;22.70;1.00
12922;DHT22;6528;48.086;16.282;2023-10-13T15:49:42;22.70;1.00
12922;DHT22;6528;48.086;16.282;2023-10-13T15:52:09;22.70;1.00
12922;DHT22;6528;48.086;16.282;2023-10-13T15:54:37;22.70;1.00
12922;DHT22;6528;48.086;16.282;2023-10-13T15:57:04;22.70;1.00
12922;DHT22;6528;48.086;16.282;2023-10-13T15:59:33;22.60;1.00
12922;DHT22;6528;48.086;16.282;2023-10-13T16:02:03;22.60;1.00
12922;DHT22;6528;48.086;16.282;2023-10-13T16:04:34;22.70;1.00
12922;DHT22;6528;48.086;16.282;2023-10-13T16:07:02;22.60;1.00
12922;DHT22;6528;48.086;16.282;2023-10-13T16:09:30;22.60;1.00
12922;DHT22;6528;48.086;16.282;2023-10-13T16:12:01;22.70;1.00
12922;DHT22;6528;48.086;16.282;2023-10-13T16:14:28;22.60;1.00
12922;DHT22;6528;48.086;16.282;2023-10-13T16:16:59;22.60;1.00
12922;DHT22;6528;48.086;16.282;2023-10-13T16:19:26;22.60;1.00
12922;DHT22;6528;48.086;16.282;2023-10-13T16:21:54;22.60;1.00
12922;DHT22;6528;48.086;16.282;2023-10-13T16:24:21;22.60;1.00
12922;DHT22;6528;48.086;16.282;2023-10-13T16:26:50;22.60;1.00
12922;DHT22;6528;48.086;16.282;2023-10-13T16:29:23;22.60;1.00
12922;DHT22;6528;48.086;16.282;2023-10-13T16:31:50;22.60;1.00
12922;DHT22;6528;48.086;16.282;2023-10-13T16:34:18;22.60;1.00
12922;DHT22;6528;48.086;16.282;2023-10-13T16:36:47;22.60;1.00
12922;DHT22;6528;48.086;16.282;2023-10-13T16:39:15;22.60;1.00
12922;DHT22;6528;48.086;16.282;2023-10-13T16:41:44;22.60;1.00
12922;DHT22;6528;48.086;16.282;2023-10-13T16:44:14;22.60;1.00
12922;DHT22;6528;48.086;16.282;2023-10-13T16:46:42;22.60;1.00
12922;DHT22;6528;48.086;16.282;2023-10-13T16:49:10;22.60;1.00
12922;DHT22;6528;48.086;16.282;2023-10-13T16:51:38;22.60;1.00
12922;DHT22;6528;48.086;16.282;2023-10-13T16:54:07;22.60;1.00